Time;durP1;ratioP1;P1;durP2;ratioP2;P2;SDS_P1;SDS_P2;PMS_P1;PMS_P2;Temp;Humidity;BMP_temperature;BMP_pressure;BME280_temperature;BME280_humidity;BME280_pressure;Samples;Min_cycle;Max_cycle;Signal;HPM_P1;HPM_P2
2023/08/29 00:08:38;;;;;;;14.60;13.10;;;;;;;17.55;92.22;97543.70;435476;1250;111376;-41
2023/08/29 00:18:45;;;;;;;16.70;13.90;;;;;;;17.53;92.31;97536.42;435316;1254;108220;-44
2023/08/29 00:28:53;;;;;;;19.20;12.80;;;;;;;17.49;92.45;97529.05;434918;1254;409861;-43
2023/08/29 00:49:07;;;;;;;13.90;12.40;;;;;;;17.48;92.78;97665.52;435159;1255;99284;-42
2023/08/29 00:59:13;;;;;;;13.80;12.50;;;;;;;17.61;93.02;97667.84;435321;1253;111560;-43
2023/08/29 01:19:29;;;;;;;15.40;12.40;;;;;;;17.70;92.60;97660.10;436323;1253;99288;-42
2023/08/29 01:39:43;;;;;;;11.20;10.20;;;;;;;17.48;93.34;97644.05;436262;1253;99218;-45
2023/08/29 01:49:49;;;;;;;11.50;9.80;;;;;;;17.29;93.33;97618.73;436168;1253;111298;-43
2023/08/29 01:59:57;;;;;;;9.80;8.90;;;;;;;17.12;93.51;97614.47;436123;1253;107275;-42
2023/08/29 02:10:02;;;;;;;9.10;8.00;;;;;;;16.84;93.80;97613.76;436224;1253;99935;-43
2023/08/29 02:30:15;;;;;;;9.70;8.80;;;;;;;16.26;93.89;97576.03;436287;1250;99247;-43
2023/08/29 02:40:22;;;;;;;11.60;10.50;;;;;;;16.03;94.20;97573.61;436488;1253;112376;-42
2023/08/29 02:50:29;;;;;;;13.10;11.90;;;;;;;15.79;94.67;97561.72;436300;1251;107542;-43
2023/08/29 03:10:41;;;;;;;15.00;13.50;;;;;;;15.46;94.49;97501.25;436274;1253;108808;-42
2023/08/29 03:20:48;;;;;;;19.50;15.60;;;;;;;15.34;94.66;97474.06;436208;1253;99238;-44
2023/08/29 03:30:55;;;;;;;16.50;14.80;;;;;;;15.23;94.81;97485.27;436335;1251;111172;-42
2023/08/29 03:41:03;;;;;;;18.30;16.50;;;;;;;15.22;94.79;97470.95;436145;1253;108681;-42
2023/08/29 03:51:10;;;;;;;18.40;16.40;;;;;;;15.29;94.86;97477.84;436159;1253;99367;-42
2023/08/29 04:11:26;;;;;;;20.40;18.20;;;;;;;15.21;94.91;97462.77;436447;1263;99232;-42
2023/08/29 04:21:33;;;;;;;24.70;17.30;;;;;;;15.21;94.91;97444.56;436307;1253;111627;-43
2023/08/29 04:31:38;;;;;;;21.30;19.20;;;;;;;15.22;95.16;97447.41;435979;1252;108251;-42
2023/08/29 05:01:56;;;;;;;27.30;22.60;;;;;;;15.62;95.26;97489.16;436217;1253;99214;-44
2023/08/29 05:12:04;;;;;;;28.90;24.20;;;;;;;15.65;94.86;97469.09;436275;1254;110917;-43
2023/08/29 05:22:09;;;;;;;26.20;22.80;;;;;;;15.69;95.25;97478.52;436220;1259;106195;-42
2023/08/29 05:32:17;;;;;;;29.70;24.50;;;;;;;15.90;95.06;97486.64;436333;1254;98804;-43
2023/08/29 05:42:24;;;;;;;27.80;24.70;;;;;;;16.05;94.97;97461.87;436068;1263;108228;-42
2023/08/29 05:52:31;;;;;;;35.20;25.20;;;;;;;16.08;94.96;97477.38;436188;1249;98264;-43
2023/08/29 06:02:38;;;;;;;44.10;29.50;;;;;;;16.35;95.18;97469.17;436269;1253;111006;-41
2023/08/29 06:12:44;;;;;;;45.30;32.20;;;;;;;16.55;94.82;97455.88;436244;1263;107949;-42
2023/08/29 06:22:50;;;;;;;52.50;36.50;;;;;;;16.68;94.67;97440.33;436291;1253;99215;-44
2023/08/29 06:32:57;;;;;;;41.90;32.20;;;;;;;16.68;94.81;97458.98;436089;1251;108348;-42
2023/08/29 06:43:04;;;;;;;41.20;28.70;;;;;;;16.76;95.00;97502.94;436255;1255;99218;-42
2023/08/29 06:53:12;;;;;;;33.70;25.50;;;;;;;16.82;95.02;97472.09;436169;1262;111026;-42
2023/08/29 07:03:17;;;;;;;44.40;28.20;;;;;;;16.96;95.15;97455.67;436155;1253;109406;-42
2023/08/29 07:13:25;;;;;;;35.70;24.60;;;;;;;17.32;95.02;97479.84;436159;1254;98428;-43
2023/08/29 07:23:31;;;;;;;61.50;36.40;;;;;;;17.39;95.05;97483.85;436148;1253;108834;-42
2023/08/29 07:33:38;;;;;;;56.30;35.40;;;;;;;17.22;95.10;97492.02;435961;1263;101518;-41
2023/08/29 07:43:46;;;;;;;43.10;30.80;;;;;;;17.23;95.58;97535.55;436172;1260;112180;-43
2023/08/29 08:03:59;;;;;;;41.60;24.90;;;;;;;17.30;95.48;97512.27;436219;1253;99205;-42
2023/08/29 08:14:06;;;;;;;41.30;24.60;;;;;;;17.30;95.58;97459.27;436305;1254;109426;-42
2023/08/29 08:24:13;;;;;;;35.60;24.90;;;;;;;17.40;95.57;97421.14;436236;1251;99224;-41
2023/08/29 08:44:27;;;;;;;29.10;17.90;;;;;;;17.99;96.09;97501.20;436235;1253;108601;-41
2023/08/29 08:54:35;;;;;;;22.10;15.40;;;;;;;18.37;95.53;97538.73;436169;1255;99234;-41
2023/08/29 09:04:41;;;;;;;25.10;16.50;;;;;;;18.64;95.34;97559.10;436151;1254;108707;-41
2023/08/29 09:14:47;;;;;;;24.60;17.90;;;;;;;18.67;94.98;97569.89;436243;1264;99316;-42
2023/08/29 09:45:15;;;;;;;34.90;23.30;;;;;;;19.03;94.25;97586.89;436074;1253;98851;-42
2023/08/29 10:05:37;;;;;;;43.70;27.70;;;;;;;18.96;93.83;97592.70;436082;1263;99388;-42
2023/08/29 10:25:55;;;;;;;46.80;28.30;;;;;;;18.92;93.74;97596.55;435916;1253;107980;-41
2023/08/29 10:46:18;;;;;;;35.00;25.30;;;;;;;18.92;93.66;97605.02;436092;1254;107196;-42
2023/08/29 10:56:39;;;;;;;37.80;24.50;;;;;;;19.00;93.46;97600.30;436057;1263;99225;-42
2023/08/29 11:27:18;;;;;;;39.60;25.60;;;;;;;19.21;93.00;97602.31;436132;1254;98839;-42
2023/08/29 11:37:30;;;;;;;37.40;25.70;;;;;;;19.39;93.02;97599.45;436124;1254;108285;-41
2023/08/29 12:17:57;;;;;;;46.70;29.30;;;;;;;19.78;92.45;97611.17;436097;1254;99231;-42
2023/08/29 12:28:03;;;;;;;35.90;26.30;;;;;;;19.80;92.00;97595.61;436107;1253;232482;-42
2023/08/29 12:38:11;;;;;;;40.60;26.10;;;;;;;19.45;91.61;97608.27;436192;1250;99443;-42
2023/08/29 12:58:25;;;;;;;44.60;27.10;;;;;;;19.02;91.80;97653.80;436000;1253;107802;-42
2023/08/29 13:08:31;;;;;;;44.90;26.40;;;;;;;18.90;92.06;97672.52;436093;1250;98830;-41
2023/08/29 13:18:35;;;;;;;52.60;31.40;;;;;;;18.67;91.89;97680.73;436232;1250;108002;-42
2023/08/29 13:28:41;;;;;;;51.30;30.90;;;;;;;18.42;91.65;97686.41;436024;1254;99838;-41
2023/08/29 13:38:48;;;;;;;45.20;27.20;;;;;;;18.08;91.94;97645.92;436270;1253;112056;-42
2023/08/29 13:48:56;;;;;;;38.40;24.10;;;;;;;17.97;92.33;97621.98;436182;1253;108355;-42
2023/08/29 14:09:10;;;;;;;33.80;21.40;;;;;;;17.90;92.59;97633.59;436172;1253;110784;-41
2023/08/29 14:39:35;;;;;;;35.60;22.70;;;;;;;17.81;92.81;97606.24;436264;1253;107152;-41
2023/08/29 14:49:42;;;;;;;31.90;21.00;;;;;;;17.87;93.06;97583.54;436129;1254;99103;-42
2023/08/29 14:59:49;;;;;;;28.80;20.40;;;;;;;17.91;92.92;97606.06;436426;1254;108238;-41
2023/08/29 15:09:55;;;;;;;30.50;18.40;;;;;;;17.93;93.05;97647.15;436241;1253;98859;-42
2023/08/29 15:20:00;;;;;;;25.90;18.10;;;;;;;17.88;93.27;97689.41;436242;1253;112016;-41
2023/08/29 15:30:09;;;;;;;26.40;18.10;;;;;;;17.87;93.14;97668.11;436135;1254;107961;-41
2023/08/29 15:50:21;;;;;;;30.90;19.00;;;;;;;17.78;93.71;97646.20;436259;1253;109068;-42
2023/08/29 16:00:29;;;;;;;26.00;18.60;;;;;;;17.91;93.56;97652.91;436319;1253;99125;-43
2023/08/29 16:10:35;;;;;;;23.20;16.90;;;;;;;17.98;93.49;97649.73;436071;1253;111334;-42
2023/08/29 16:20:42;;;;;;;30.30;18.00;;;;;;;18.01;93.51;97630.23;437943;1253;107898;-42
2023/08/29 16:30:48;;;;;;;22.40;16.90;;;;;;;18.08;93.43;97603.15;438175;1266;99102;-42
2023/08/29 16:40:53;;;;;;;28.60;19.60;;;;;;;18.16;93.62;97571.42;437060;1253;105748;-41
2023/08/29 16:51:00;;;;;;;32.30;24.00;;;;;;;18.09;93.42;97576.77;437351;1253;99204;-41
2023/08/29 17:01:07;;;;;;;27.20;18.70;;;;;;;17.88;93.31;97572.44;437216;1253;111393;-42
2023/08/29 17:11:14;;;;;;;29.40;18.30;;;;;;;17.78;93.63;97574.55;437710;1251;107025;-41
2023/08/29 17:21:21;;;;;;;27.80;19.80;;;;;;;17.79;93.65;97577.56;437573;1253;99208;-41
2023/08/29 17:31:29;;;;;;;40.90;25.40;;;;;;;17.69;93.58;97566.33;437773;1253;107536;-41
2023/08/29 17:41:37;;;;;;;38.40;22.20;;;;;;;17.48;93.68;97556.72;437392;1251;99947;-42
2023/08/29 17:51:43;;;;;;;40.50;24.10;;;;;;;17.33;93.39;97547.48;437828;1253;112838;-42
2023/08/29 18:22:03;;;;;;;41.50;24.40;;;;;;;17.14;94.29;97591.82;438586;1253;107573;-41
2023/08/29 18:32:10;;;;;;;34.70;22.10;;;;;;;17.23;94.40;97576.95;438389;1253;98750;-41
2023/08/29 18:42:17;;;;;;;55.20;24.20;;;;;;;17.00;94.32;97564.32;438679;1254;112608;-42
2023/08/29 19:02:31;;;;;;;62.00;22.80;;;;;;;17.12;94.87;97566.93;437774;1251;99230;-41
2023/08/29 19:12:38;;;;;;;48.30;22.20;;;;;;;17.13;94.99;97588.23;438450;1252;107172;-41
2023/08/29 19:22:44;;;;;;;29.90;20.50;;;;;;;17.14;94.86;97580.24;437546;1251;98051;-44
2023/08/29 19:32:52;;;;;;;36.50;22.50;;;;;;;17.12;95.09;97588.88;437387;1253;112099;-42
2023/08/29 19:43:03;;;;;;;37.60;25.20;;;;;;;17.09;95.17;97549.63;436227;1254;107587;-41
2023/08/29 19:53:10;;;;;;;42.90;27.50;;;;;;;17.04;95.36;97543.15;436286;1253;99206;-40
2023/08/29 20:03:17;;;;;;;45.20;28.60;;;;;;;16.96;95.58;97552.83;437701;1253;108538;-41
2023/08/29 20:13:25;;;;;;;49.60;31.70;;;;;;;16.92;95.78;97544.56;438122;1251;98588;-42
2023/08/29 20:23:30;;;;;;;48.30;31.70;;;;;;;16.96;96.06;97566.33;437933;1254;111966;-41
2023/08/29 20:43:41;;;;;;;54.50;33.30;;;;;;;16.96;96.16;97560.34;436715;1251;98838;-41
2023/08/29 21:03:47;;;;;;;48.10;30.30;;;;;;;16.86;96.38;97574.96;438280;1254;99201;-41
2023/08/29 21:13:53;;;;;;;47.70;30.90;;;;;;;16.87;96.62;97550.77;436363;1251;110819;-40
2023/08/29 21:24:00;;;;;;;45.00;29.60;;;;;;;16.86;96.66;97540.36;438350;1253;107470;-42
2023/08/29 21:44:14;;;;;;;37.90;26.30;;;;;;;16.92;96.60;97584.73;438587;1253;108713;-41
2023/08/29 21:54:21;;;;;;;41.30;27.30;;;;;;;16.91;96.62;97610.20;437585;1251;99247;-40
2023/08/29 22:04:28;;;;;;;36.40;27.70;;;;;;;16.93;96.76;97631.33;436900;1253;111930;-41
2023/08/29 22:34:48;;;;;;;34.30;25.00;;;;;;;16.86;96.74;97576.94;436135;1249;107976;-43
2023/08/29 22:44:55;;;;;;;45.20;26.30;;;;;;;16.78;96.69;97559.73;436281;1253;99208;-41
2023/08/29 22:55:04;;;;;;;43.30;26.70;;;;;;;16.71;96.98;97565.88;436303;1254;110579;-41
2023/08/29 23:05:12;;;;;;;36.50;24.00;;;;;;;16.73;97.18;97556.60;436055;1254;108183;-41
2023/08/29 23:15:20;;;;;;;33.70;22.70;;;;;;;16.77;97.15;97566.29;436206;1251;99250;-41
2023/08/29 23:25:27;;;;;;;28.90;20.30;;;;;;;16.84;97.30;97567.75;436288;1254;107940;-41
2023/08/29 23:35:34;;;;;;;20.00;14.80;;;;;;;16.87;97.11;97570.58;436335;1253;99224;-41
2023/08/29 23:45:39;;;;;;;19.80;13.20;;;;;;;16.81;97.13;97550.81;436165;1254;111454;-40
2023/08/29 23:55:47;;;;;;;13.10;10.30;;;;;;;16.77;97.15;97558.36;436074;1263;108333;-40
